createdAt,value
2019-05-13T00:00:54.340Z,2.57
2019-05-13T00:03:24.067Z,2.57
2019-05-13T00:05:53.813Z,1.93
2019-05-13T00:08:24.990Z,2.47
2019-05-13T00:10:54.943Z,1.57
2019-05-13T00:13:24.900Z,2.53
2019-05-13T00:15:54.609Z,2.23
2019-05-13T00:18:24.198Z,3.33
2019-05-13T00:20:54.289Z,2.47
2019-05-13T00:23:24.336Z,2.47
2019-05-13T00:25:54.655Z,2.93
2019-05-13T00:28:24.417Z,3.00
2019-05-13T00:30:54.415Z,2.20
2019-05-13T00:33:24.515Z,1.53
2019-05-13T00:35:54.290Z,2.70
2019-05-13T00:38:24.573Z,2.87
2019-05-13T00:40:54.671Z,2.53
2019-05-13T00:43:24.639Z,1.83
2019-05-13T00:45:54.446Z,1.87
2019-05-13T00:48:24.140Z,2.13
2019-05-13T00:50:54.408Z,2.47
2019-05-13T00:53:24.541Z,1.70
2019-05-13T00:55:54.249Z,3.30
2019-05-13T00:58:24.395Z,1.97
2019-05-13T01:00:54.741Z,5.40
2019-05-13T01:03:28.117Z,2.13
2019-05-13T01:05:55.831Z,2.23
2019-05-13T01:08:25.506Z,2.70
2019-05-13T01:10:55.298Z,2.03
2019-05-13T01:13:24.989Z,1.77
2019-05-13T01:15:54.611Z,3.73
2019-05-13T01:18:24.309Z,2.60
2019-05-13T01:20:54.081Z,1.87
2019-05-13T01:23:24.219Z,1.60
2019-05-13T01:25:54.576Z,2.80
2019-05-13T01:28:24.344Z,1.47
2019-05-13T01:30:54.502Z,2.07
2019-05-13T01:33:24.169Z,1.40
2019-05-13T01:35:54.006Z,1.47
2019-05-13T01:38:24.165Z,2.20
2019-05-13T01:40:54.200Z,2.50
2019-05-13T01:43:24.641Z,1.70
2019-05-13T01:45:54.805Z,2.27
2019-05-13T01:48:24.436Z,2.00
2019-05-13T01:50:54.302Z,1.87
2019-05-13T01:53:24.527Z,1.30
2019-05-13T01:55:54.486Z,1.87
2019-05-13T01:58:24.200Z,1.70
2019-05-13T02:00:55.232Z,2.20
2019-05-13T02:03:25.192Z,1.87
2019-05-13T02:05:54.724Z,2.47
2019-05-13T02:08:24.670Z,2.83
2019-05-13T02:10:56.202Z,1.60
2019-05-13T02:13:26.300Z,1.90
2019-05-13T02:15:56.035Z,1.63
2019-05-13T02:18:26.049Z,2.03
2019-05-13T02:20:56.155Z,3.80
2019-05-13T02:23:26.064Z,1.87
2019-05-13T02:25:55.818Z,1.53
2019-05-13T02:28:25.557Z,1.47
2019-05-13T02:30:56.537Z,3.30
2019-05-13T02:33:26.562Z,2.10
2019-05-13T02:35:56.314Z,2.60
2019-05-13T02:38:30.221Z,2.40
2019-05-13T02:40:57.404Z,2.80
2019-05-13T02:43:27.195Z,1.50
2019-05-13T02:45:57.475Z,1.50
2019-05-13T02:48:27.162Z,5.33
2019-05-13T02:50:56.796Z,2.73
2019-05-13T02:53:26.570Z,1.80
2019-05-13T02:55:56.611Z,2.67
2019-05-13T02:58:26.619Z,1.30
2019-05-13T03:00:56.378Z,2.90
2019-05-13T03:03:26.126Z,2.00
2019-05-13T03:05:55.897Z,2.20
2019-05-13T03:08:39.217Z,1.47
2019-05-13T03:10:56.959Z,5.53
2019-05-13T03:13:27.145Z,2.77
2019-05-13T03:16:13.136Z,2.83
2019-05-13T03:19:02.903Z,2.43
2019-05-13T03:21:33.130Z,1.90
2019-05-13T03:24:03.705Z,2.70
2019-05-13T03:26:33.752Z,1.43
2019-05-13T03:29:03.620Z,3.07
2019-05-13T03:31:35.734Z,3.40
2019-05-13T03:34:07.076Z,4.00
2019-05-13T03:36:38.693Z,1.87
2019-05-13T03:39:14.555Z,1.60
2019-05-13T03:41:43.012Z,3.53
2019-05-13T03:44:13.696Z,2.50
2019-05-13T03:46:44.014Z,4.67
2019-05-13T03:49:14.406Z,5.00
2019-05-13T03:51:44.207Z,3.87
2019-05-13T03:54:15.015Z,2.60
2019-05-13T03:56:44.721Z,3.63
2019-05-13T03:59:14.529Z,4.50
2019-05-13T04:01:44.669Z,3.00
2019-05-13T04:04:14.469Z,3.47
2019-05-13T04:06:44.130Z,3.10
2019-05-13T04:09:25.656Z,2.77
2019-05-13T04:11:45.541Z,2.33
2019-05-13T04:14:15.671Z,2.30
2019-05-13T04:16:45.671Z,2.60
2019-05-13T04:19:15.553Z,2.23
2019-05-13T04:21:45.492Z,1.73
2019-05-13T04:24:15.182Z,5.23
2019-05-13T04:26:44.937Z,4.33
2019-05-13T04:29:14.728Z,6.50
2019-05-13T04:31:44.447Z,2.83
2019-05-13T04:34:14.198Z,3.37
2019-05-13T04:36:43.945Z,6.70
2019-05-13T04:39:13.730Z,2.20
2019-05-13T04:41:43.645Z,2.93
2019-05-13T04:44:13.842Z,2.70
2019-05-13T04:46:43.684Z,2.60
2019-05-13T04:49:13.747Z,3.23
2019-05-13T04:51:43.538Z,4.07
2019-05-13T04:54:13.359Z,3.13
2019-05-13T04:56:43.246Z,4.50
2019-05-13T04:59:13.002Z,3.77
2019-05-13T05:01:55.286Z,2.90
2019-05-13T05:04:58.021Z,6.87
2019-05-13T05:07:33.951Z,4.53
2019-05-13T05:10:22.201Z,2.43
2019-05-13T05:12:46.902Z,4.07
2019-05-13T05:15:52.389Z,3.97
2019-05-13T05:18:28.283Z,3.80
2019-05-13T05:21:04.189Z,6.40
2019-05-13T05:23:42.143Z,3.63
2019-05-13T05:26:46.362Z,2.27
2019-05-13T05:29:33.487Z,4.13
2019-05-13T05:32:18.439Z,4.73
2019-05-13T05:35:11.841Z,3.83
2019-05-13T05:38:16.520Z,4.00
2019-05-13T05:40:48.156Z,5.13
2019-05-13T05:43:18.545Z,4.60
2019-05-13T05:45:48.302Z,2.90
2019-05-13T05:48:18.362Z,5.43
2019-05-13T05:50:48.120Z,5.03
2019-05-13T05:53:21.867Z,7.10
2019-05-13T05:55:52.555Z,2.60
2019-05-13T05:58:23.836Z,3.80
2019-05-13T06:00:56.222Z,4.80
2019-05-13T06:03:27.744Z,5.37
2019-05-13T06:05:57.531Z,4.00
2019-05-13T06:08:27.303Z,4.40
2019-05-13T06:10:57.032Z,2.10
2019-05-13T06:13:26.628Z,5.13
2019-05-13T06:15:56.446Z,5.80
2019-05-13T06:18:26.486Z,7.33
2019-05-13T06:20:56.230Z,5.57
2019-05-13T06:23:26.000Z,4.53
2019-05-13T06:25:55.738Z,6.00
2019-05-13T06:28:25.653Z,3.47
2019-05-13T06:30:55.513Z,3.43
2019-05-13T06:33:25.610Z,8.00
2019-05-13T06:35:55.392Z,3.13
2019-05-13T06:38:25.449Z,2.90
2019-05-13T06:41:02.858Z,9.13
2019-05-13T06:43:26.565Z,4.80
2019-05-13T06:45:56.262Z,7.57
2019-05-13T06:48:26.040Z,5.63
2019-05-13T06:50:55.809Z,2.63
2019-05-13T06:53:25.462Z,3.03
2019-05-13T06:55:55.175Z,3.17
2019-05-13T06:58:24.905Z,3.83
2019-05-13T07:00:58.132Z,6.67
2019-05-13T07:03:25.859Z,3.23
2019-05-13T07:05:55.594Z,4.57
2019-05-13T07:08:25.264Z,5.63
2019-05-13T07:10:55.124Z,1.80
2019-05-13T07:13:24.823Z,2.43
2019-05-13T07:15:54.544Z,3.60
2019-05-13T07:18:24.263Z,2.60
2019-05-13T07:20:54.193Z,2.13
2019-05-13T07:23:23.957Z,5.33
2019-05-13T07:25:53.767Z,4.93
2019-05-13T07:28:23.537Z,3.10
2019-05-13T07:30:53.386Z,3.77
2019-05-13T07:33:23.021Z,4.40
2019-05-13T07:35:58.289Z,2.80
2019-05-13T07:38:25.131Z,3.43
2019-05-13T07:41:02.955Z,2.40
2019-05-13T07:43:32.698Z,3.07
2019-05-13T07:46:02.465Z,3.07
2019-05-13T07:48:32.250Z,2.53
2019-05-13T07:51:04.419Z,2.13
2019-05-13T07:53:33.381Z,4.30
2019-05-13T07:56:03.231Z,2.57
2019-05-13T07:58:37.183Z,2.70
2019-05-13T08:01:04.733Z,3.30
2019-05-13T08:03:34.447Z,1.53
2019-05-13T08:06:04.347Z,4.27
2019-05-13T08:08:34.141Z,1.53
2019-05-13T08:11:04.155Z,3.80
2019-05-13T08:13:33.873Z,2.50
2019-05-13T08:16:03.789Z,4.50
2019-05-13T08:18:33.541Z,2.33
2019-05-13T08:21:03.235Z,1.50
2019-05-13T08:23:33.030Z,3.37
2019-05-13T08:26:02.890Z,2.10
2019-05-13T08:28:32.678Z,5.57
2019-05-13T08:31:02.447Z,2.60
2019-05-13T08:33:32.416Z,2.60
2019-05-13T08:36:02.144Z,2.80
2019-05-13T08:38:32.243Z,3.07
2019-05-13T08:41:02.271Z,5.30
2019-05-13T08:43:32.063Z,1.07
2019-05-13T08:46:02.445Z,1.57
2019-05-13T08:48:32.447Z,1.97
2019-05-13T08:51:03.153Z,3.80
2019-05-13T08:53:33.230Z,1.57
2019-05-13T08:56:02.929Z,1.30
2019-05-13T08:58:33.058Z,1.50
2019-05-13T09:01:02.764Z,4.30
2019-05-13T09:03:32.864Z,4.90
2019-05-13T09:06:03.165Z,3.57
2019-05-13T09:08:33.151Z,1.27
2019-05-13T09:11:02.897Z,2.30
2019-05-13T09:13:33.187Z,2.13
2019-05-13T09:16:03.114Z,2.50
2019-05-13T09:18:32.913Z,5.30
2019-05-13T09:21:02.866Z,5.03
2019-05-13T09:23:32.695Z,6.10
2019-05-13T09:28:33.700Z,2.70
2019-05-13T09:31:04.261Z,1.80
2019-05-13T09:33:33.978Z,2.60
2019-05-13T09:36:03.653Z,1.70
2019-05-13T09:38:33.364Z,2.20
2019-05-13T09:41:03.123Z,1.87
2019-05-13T09:43:32.946Z,1.27
2019-05-13T09:46:02.584Z,2.93
2019-05-13T09:48:32.307Z,4.83
2019-05-13T09:51:02.605Z,2.17
2019-05-13T09:53:32.843Z,2.20
2019-05-13T09:56:02.736Z,2.87
2019-05-13T09:58:33.259Z,2.13
2019-05-13T10:01:03.230Z,3.53
2019-05-13T10:03:33.416Z,2.77
2019-05-13T10:06:03.305Z,2.13
2019-05-13T10:08:33.077Z,1.77
2019-05-13T10:11:02.811Z,2.13
2019-05-13T10:13:32.539Z,3.53
2019-05-13T10:16:02.267Z,1.60
2019-05-13T10:18:32.843Z,2.40
2019-05-13T10:21:03.919Z,1.80
2019-05-13T10:23:33.622Z,1.03
2019-05-13T10:26:06.329Z,2.00
2019-05-13T10:28:36.400Z,1.43
2019-05-13T10:31:06.970Z,3.97
2019-05-13T10:33:36.738Z,1.00
2019-05-13T10:36:06.664Z,1.37
2019-05-13T10:38:36.426Z,1.63
2019-05-13T10:41:06.203Z,3.50
2019-05-13T10:43:40.098Z,1.33
2019-05-13T10:46:07.558Z,2.87
2019-05-13T10:48:37.188Z,1.63
2019-05-13T10:51:06.929Z,1.00
2019-05-13T10:53:36.753Z,2.10
2019-05-13T10:56:06.840Z,1.43
2019-05-13T10:58:36.727Z,1.83
2019-05-13T11:01:06.538Z,1.40
2019-05-13T11:03:36.356Z,1.83
2019-05-13T11:06:06.144Z,2.80
2019-05-13T11:08:35.818Z,1.27
2019-05-13T11:11:05.554Z,1.77
2019-05-13T11:16:06.421Z,1.87
2019-05-13T11:18:36.155Z,1.00
2019-05-13T11:21:06.464Z,1.40
2019-05-13T11:23:36.379Z,1.13
2019-05-13T11:26:06.101Z,1.97
2019-05-13T11:28:36.027Z,3.43
2019-05-13T11:31:05.793Z,2.07
2019-05-13T11:33:35.482Z,1.00
2019-05-13T11:36:05.295Z,2.73
2019-05-13T11:38:34.895Z,3.33
2019-05-13T11:41:04.632Z,2.30
2019-05-13T11:43:34.378Z,0.80
2019-05-13T11:46:04.456Z,1.10
2019-05-13T11:48:34.220Z,1.50
2019-05-13T11:51:04.441Z,1.10
2019-05-13T11:53:37.401Z,1.93
2019-05-13T11:56:05.972Z,1.83
2019-05-13T11:58:36.000Z,0.80
2019-05-13T12:01:06.531Z,1.00
2019-05-13T12:03:36.248Z,2.00
2019-05-13T12:06:05.956Z,0.93
2019-05-13T12:08:36.073Z,1.43
2019-05-13T12:11:06.584Z,1.37
2019-05-13T12:13:36.530Z,1.47
2019-05-13T12:16:06.384Z,2.43
2019-05-13T12:18:43.202Z,2.70
2019-05-13T12:21:07.771Z,1.27
2019-05-13T12:23:37.462Z,1.60
2019-05-13T12:26:07.212Z,1.83
2019-05-13T12:28:36.924Z,1.73
2019-05-13T12:31:07.940Z,2.37
2019-05-13T12:33:38.143Z,2.20
2019-05-13T12:36:09.815Z,0.90
2019-05-13T12:38:43.532Z,4.10
2019-05-13T12:41:12.875Z,1.10
2019-05-13T12:43:43.510Z,0.90
2019-05-13T12:46:13.628Z,1.20
2019-05-13T12:48:43.907Z,2.10
2019-05-13T12:51:13.976Z,1.10
2019-05-13T12:53:43.989Z,1.20
2019-05-13T12:56:14.123Z,1.93
2019-05-13T12:58:44.409Z,0.80
2019-05-13T13:01:14.855Z,1.07
2019-05-13T13:03:45.153Z,1.20
2019-05-13T13:06:32.358Z,2.80
2019-05-13T13:08:49.157Z,2.50
2019-05-13T13:11:22.536Z,1.00
2019-05-13T13:14:03.995Z,0.83
2019-05-13T13:16:22.642Z,1.10
2019-05-13T13:18:52.736Z,1.33
2019-05-13T13:21:28.789Z,1.20
2019-05-13T13:23:54.567Z,1.23
2019-05-13T13:26:24.448Z,0.80
2019-05-13T13:28:56.113Z,1.57
2019-05-13T13:31:26.035Z,1.90
2019-05-13T13:33:56.000Z,3.57
2019-05-13T13:36:26.005Z,2.13
2019-05-13T13:38:56.466Z,0.70
2019-05-13T13:41:26.662Z,1.63
2019-05-13T13:43:56.757Z,0.70
2019-05-13T13:46:42.325Z,1.10
2019-05-13T13:48:58.103Z,1.50
2019-05-13T13:51:27.955Z,1.17
2019-05-13T13:53:57.916Z,1.67
2019-05-13T13:56:28.141Z,1.83
2019-05-13T13:58:57.755Z,6.47
2019-05-13T14:01:27.786Z,2.00
2019-05-13T14:03:57.643Z,1.07
2019-05-13T14:06:25.162Z,2.90
2019-05-13T14:06:28.555Z,1.47
2019-05-13T14:09:01.269Z,1.57
2019-05-13T14:11:29.881Z,1.10
2019-05-13T14:14:01.996Z,2.53
2019-05-13T14:16:35.060Z,1.00
2019-05-13T14:19:02.796Z,0.83
2019-05-13T14:21:32.582Z,1.00
2019-05-13T14:24:02.773Z,2.30
2019-05-13T14:26:33.246Z,1.83
2019-05-13T14:29:03.191Z,3.33
2019-05-13T14:31:32.879Z,1.10
2019-05-13T14:34:03.673Z,1.57
2019-05-13T14:36:33.571Z,1.43
2019-05-13T14:39:05.332Z,1.63
2019-05-13T14:41:35.247Z,1.07
2019-05-13T14:44:05.281Z,2.20
2019-05-13T14:46:46.747Z,1.77
2019-05-13T14:49:07.056Z,1.10
2019-05-13T14:51:36.741Z,1.30
2019-05-13T14:54:06.771Z,1.30
2019-05-13T14:56:36.398Z,1.30
2019-05-13T14:59:06.014Z,0.90
2019-05-13T15:01:36.112Z,2.13
2019-05-13T15:04:05.802Z,4.30
2019-05-13T15:06:36.198Z,1.53
2019-05-13T15:09:07.682Z,1.20
2019-05-13T15:11:37.836Z,1.73
2019-05-13T15:14:08.663Z,3.03
2019-05-13T15:16:38.272Z,1.57
2019-05-13T15:19:07.979Z,1.60
2019-05-13T15:21:37.682Z,2.80
2019-05-13T15:24:07.499Z,1.07
2019-05-13T15:26:37.159Z,1.47
2019-05-13T15:29:06.942Z,1.23
2019-05-13T15:31:39.019Z,1.00
2019-05-13T15:34:08.011Z,1.00
2019-05-13T15:36:37.719Z,2.60
2019-05-13T15:39:07.670Z,1.17
2019-05-13T15:41:37.691Z,0.90
2019-05-13T15:44:07.827Z,1.00
2019-05-13T15:46:37.453Z,1.30
2019-05-13T15:49:07.551Z,1.83
2019-05-13T15:51:37.209Z,1.37
2019-05-13T15:54:06.918Z,2.23
2019-05-13T15:56:36.728Z,1.10
2019-05-13T15:59:08.783Z,1.20
2019-05-13T16:01:37.704Z,2.13
2019-05-13T16:04:07.447Z,2.30
2019-05-13T16:06:37.378Z,1.30
2019-05-13T16:09:11.492Z,2.10
2019-05-13T16:11:41.439Z,1.53
2019-05-13T16:14:11.858Z,1.57
2019-05-13T16:16:42.053Z,1.43
2019-05-13T16:19:12.375Z,1.90
2019-05-13T16:21:42.146Z,1.30
2019-05-13T16:24:12.276Z,2.90
2019-05-13T16:27:02.514Z,1.73
2019-05-13T16:29:32.470Z,1.37
2019-05-13T16:32:02.533Z,1.43
2019-05-13T16:34:32.640Z,1.27
2019-05-13T16:37:02.754Z,5.13
2019-05-13T16:39:32.563Z,1.20
2019-05-13T16:42:02.328Z,4.40
2019-05-13T16:44:32.116Z,1.30
2019-05-13T16:47:02.266Z,1.33
2019-05-13T16:49:32.328Z,2.50
2019-05-13T16:52:02.519Z,2.27
2019-05-13T16:54:33.226Z,1.40
2019-05-13T16:57:02.902Z,1.20
2019-05-13T16:59:32.561Z,1.63
2019-05-13T17:02:02.619Z,2.87
2019-05-13T17:04:32.409Z,1.57
2019-05-13T17:07:02.477Z,4.00
2019-05-13T17:09:32.494Z,6.47
2019-05-13T17:12:21.757Z,9.93
2019-05-13T17:14:52.257Z,5.77
2019-05-13T17:17:22.573Z,8.63
2019-05-13T17:19:53.889Z,3.33
2019-05-13T17:22:23.863Z,4.60
2019-05-13T17:24:53.487Z,4.67
2019-05-13T17:27:23.141Z,2.53
2019-05-13T17:29:53.086Z,1.67
2019-05-13T17:32:22.892Z,2.03
2019-05-13T17:34:52.523Z,2.70
2019-05-13T17:37:22.463Z,4.40
2019-05-13T17:39:52.152Z,3.00
2019-05-13T17:42:22.255Z,1.80
2019-05-13T17:44:51.872Z,1.90
2019-05-13T17:47:21.878Z,2.20
2019-05-13T17:49:52.209Z,1.40
2019-05-13T17:52:22.233Z,3.37
2019-05-13T17:54:52.071Z,2.77
2019-05-13T17:57:22.038Z,2.00
2019-05-13T17:59:52.084Z,4.03
2019-05-13T18:02:25.805Z,2.23
2019-05-13T18:04:58.249Z,2.30
2019-05-13T18:07:27.866Z,7.03
2019-05-13T18:09:57.713Z,5.53
2019-05-13T18:12:27.879Z,1.63
2019-05-13T18:14:57.582Z,6.40
2019-05-13T18:17:27.232Z,1.50
2019-05-13T18:20:02.947Z,3.63
2019-05-13T18:22:32.860Z,2.00
2019-05-13T18:25:02.739Z,1.37
2019-05-13T18:27:32.524Z,3.30
2019-05-13T18:30:02.433Z,1.97
2019-05-13T18:32:33.771Z,2.10
2019-05-13T18:35:04.234Z,2.47
2019-05-13T18:37:34.017Z,3.23
2019-05-13T18:40:07.937Z,5.73
2019-05-13T18:42:37.693Z,12.43
2019-05-13T18:45:11.307Z,23.60
2019-05-13T18:47:40.929Z,34.80
2019-05-13T18:50:31.356Z,56.10
2019-05-13T18:53:01.791Z,69.80
2019-05-13T18:55:32.055Z,71.93
2019-05-13T18:58:01.748Z,77.20
2019-05-13T19:00:32.239Z,76.17
2019-05-13T19:03:02.182Z,72.70
2019-05-13T19:05:31.967Z,89.70
2019-05-13T19:08:02.018Z,71.30
2019-05-13T19:10:31.756Z,65.63
2019-05-13T19:13:01.808Z,83.20
2019-05-13T19:15:31.808Z,78.17
2019-05-13T19:18:01.515Z,61.73
2019-05-13T19:20:31.384Z,58.07
2019-05-13T19:23:01.277Z,55.00
2019-05-13T19:25:31.453Z,56.67
2019-05-13T19:28:02.389Z,49.73
2019-05-13T19:30:32.078Z,41.27
2019-05-13T19:33:01.825Z,44.77
2019-05-13T19:35:32.257Z,45.13
2019-05-13T19:38:03.804Z,37.80
2019-05-13T19:40:33.824Z,36.87
2019-05-13T19:43:03.663Z,32.87
2019-05-13T19:45:33.451Z,33.10
2019-05-13T19:48:03.263Z,36.57
2019-05-13T19:50:32.957Z,27.87
2019-05-13T19:53:02.774Z,29.17
2019-05-13T19:55:33.903Z,32.13
2019-05-13T19:58:03.845Z,20.63
2019-05-13T20:00:33.730Z,24.33
2019-05-13T20:03:04.594Z,54.80
2019-05-13T20:05:35.081Z,60.67
2019-05-13T20:08:04.840Z,46.97
2019-05-13T20:10:34.555Z,40.30
2019-05-13T20:13:04.905Z,39.63
2019-05-13T20:15:34.685Z,33.53
2019-05-13T20:18:12.149Z,28.00
2019-05-13T20:20:42.122Z,23.00
2019-05-13T20:23:12.164Z,21.40
2019-05-13T20:25:46.416Z,17.00
2019-05-13T20:28:16.093Z,15.37
2019-05-13T20:30:45.804Z,13.97
2019-05-13T20:33:15.937Z,16.57
2019-05-13T20:35:45.845Z,11.77
2019-05-13T20:38:15.461Z,8.37
2019-05-13T20:40:45.142Z,9.00
2019-05-13T20:43:14.955Z,7.00
2019-05-13T20:45:44.682Z,7.93
2019-05-13T20:48:14.467Z,5.30
2019-05-13T20:50:44.190Z,7.37
2019-05-13T20:53:14.320Z,7.00
2019-05-13T20:55:43.960Z,6.20
2019-05-13T20:58:13.567Z,5.13
2019-05-13T21:00:43.387Z,5.13
2019-05-13T21:03:13.204Z,3.13
2019-05-13T21:05:42.956Z,2.63
2019-05-13T21:08:12.987Z,2.23
2019-05-13T21:10:42.720Z,3.33
2019-05-13T21:13:12.495Z,6.67
2019-05-13T21:15:42.570Z,2.27
2019-05-13T21:18:12.427Z,2.20
2019-05-13T21:20:42.218Z,2.33
2019-05-13T21:23:12.942Z,2.90
2019-05-13T21:25:42.709Z,1.90
2019-05-13T21:28:12.333Z,1.60
2019-05-13T21:30:42.369Z,2.70
2019-05-13T21:33:12.331Z,1.87
2019-05-13T21:35:42.081Z,1.70
2019-05-13T21:38:11.743Z,2.80
2019-05-13T21:40:41.717Z,1.60
2019-05-13T21:43:11.664Z,1.30
2019-05-13T21:45:41.593Z,1.30
2019-05-13T21:48:11.379Z,2.63
2019-05-13T21:50:41.547Z,1.30
2019-05-13T21:53:12.394Z,1.30
2019-05-13T21:55:42.506Z,1.23
2019-05-13T21:58:14.147Z,3.43
2019-05-13T22:00:45.669Z,1.50
2019-05-13T22:03:15.364Z,2.40
2019-05-13T22:05:45.625Z,2.00
2019-05-13T22:08:15.526Z,1.70
2019-05-13T22:10:45.769Z,1.57
2019-05-13T22:13:15.644Z,1.20
2019-05-13T22:15:45.554Z,1.30
2019-05-13T22:18:15.261Z,1.60
2019-05-13T22:20:50.491Z,1.73
2019-05-13T22:23:16.529Z,1.27
2019-05-13T22:25:46.297Z,1.10
2019-05-13T22:28:16.034Z,2.00
2019-05-13T22:30:45.884Z,1.10
2019-05-13T22:33:15.583Z,1.40
2019-05-13T22:35:45.628Z,1.67
2019-05-13T22:38:15.368Z,1.73
2019-05-13T22:40:45.110Z,1.00
2019-05-13T22:43:14.865Z,1.17
2019-05-13T22:45:44.651Z,1.40
2019-05-13T22:48:14.934Z,1.57
2019-05-13T22:50:44.952Z,1.30
2019-05-13T22:53:14.810Z,1.73
2019-05-13T22:55:44.604Z,2.37
2019-05-13T22:58:14.342Z,3.63
2019-05-13T23:00:44.068Z,1.53
2019-05-13T23:03:13.750Z,1.30
2019-05-13T23:05:43.409Z,1.83
2019-05-13T23:08:13.116Z,1.40
2019-05-13T23:10:43.304Z,1.70
2019-05-13T23:13:12.902Z,1.53
2019-05-13T23:15:42.819Z,1.20
2019-05-13T23:18:12.662Z,1.33
2019-05-13T23:20:42.308Z,1.93
2019-05-13T23:23:11.930Z,3.47
2019-05-13T23:25:43.182Z,3.10
2019-05-13T23:28:13.019Z,4.30
2019-05-13T23:30:42.925Z,5.40
2019-05-13T23:33:12.558Z,3.30
2019-05-13T23:35:42.182Z,2.70
2019-05-13T23:38:12.259Z,5.23
2019-05-13T23:40:42.087Z,3.57
2019-05-13T23:43:11.908Z,3.90
2019-05-13T23:45:41.795Z,4.67
2019-05-13T23:48:11.518Z,3.50
2019-05-13T23:50:41.620Z,3.57
2019-05-13T23:53:11.380Z,3.70
2019-05-13T23:55:41.404Z,2.90
2019-05-13T23:58:12.170Z,3.50
